Weather at Hakodate Airport

Public forecast

Using degrees Celsius for public forecast. Weather courtesy of forecast.io.

Current aviation weather report (METAR) for Hakodate Airport

Report is more than 6 hours old.

Retrieved 2021/07/29 11:00 UTC (8 hours ago):

RJCH 291100Z 07008KT 9999 FEW007 SCT025 23/22 Q1003

Aviation forecast (TAF) for Hakodate Airport

Retrieved 2021/07/29 18:28 UTC (53 minutes ago):

TAF RJCH 291711Z 2918/3100 14008KT 9999 FEW010 BKN025 TEMPO 2918/3000 FEW005 BKN008 TEMPO 3012/3100 FEW005 BKN008